createdAt,value
2017-04-19T00:00:40.196Z,1026.7
2017-04-19T00:01:40.218Z,1026.71
2017-04-19T00:02:40.144Z,1026.73
2017-04-19T00:03:40.114Z,1026.71
2017-04-19T00:04:40.087Z,1026.78
2017-04-19T00:05:40.066Z,1026.82
2017-04-19T00:06:40.035Z,1026.82
2017-04-19T00:07:40.009Z,1026.81
2017-04-19T00:08:39.977Z,1026.8
2017-04-19T00:09:39.951Z,1026.8
2017-04-19T00:10:39.932Z,1026.81
2017-04-19T00:11:39.898Z,1026.76
2017-04-19T00:12:39.876Z,1026.82
2017-04-19T00:13:39.848Z,1026.8
2017-04-19T00:14:39.821Z,1026.8
2017-04-19T00:15:39.798Z,1026.82
2017-04-19T00:16:39.769Z,1026.83
2017-04-19T00:18:39.714Z,1026.87
2017-04-19T00:19:39.687Z,1026.83
2017-04-19T00:20:39.664Z,1026.86
2017-04-19T00:21:39.631Z,1026.85
2017-04-19T00:22:39.607Z,1026.87
2017-04-19T00:23:39.582Z,1026.87
2017-04-19T00:24:39.557Z,1026.9
2017-04-19T00:25:39.525Z,1026.85
2017-04-19T00:26:39.553Z,1026.86
2017-04-19T00:27:39.473Z,1026.88
2017-04-19T00:28:39.442Z,1026.81
2017-04-19T00:29:39.418Z,1026.83
2017-04-19T00:30:39.393Z,1026.86
2017-04-19T00:31:39.364Z,1026.81
2017-04-19T00:32:39.338Z,1026.84
2017-04-19T00:33:39.311Z,1026.86
2017-04-19T00:34:39.285Z,1026.85
2017-04-19T00:35:39.258Z,1026.86
2017-04-19T00:36:39.231Z,1026.85
2017-04-19T00:37:39.203Z,1026.89
2017-04-19T00:38:39.386Z,1026.82
2017-04-19T00:39:39.149Z,1026.84
2017-04-19T00:40:39.122Z,1026.83
2017-04-19T00:41:39.096Z,1026.86
2017-04-19T00:42:39.070Z,1026.89
2017-04-19T00:43:39.040Z,1026.84
2017-04-19T00:44:39.019Z,1026.92
2017-04-19T00:45:38.989Z,1026.88
2017-04-19T00:46:38.995Z,1026.82
2017-04-19T00:47:38.932Z,1026.87
2017-04-19T00:48:38.905Z,1026.85
2017-04-19T00:49:38.879Z,1026.88
2017-04-19T00:50:38.849Z,1026.89
2017-04-19T00:51:38.824Z,1026.87
2017-04-19T00:52:38.811Z,1026.89
2017-04-19T00:53:38.772Z,1026.85
2017-04-19T00:54:38.742Z,1026.93
2017-04-19T00:55:38.916Z,1026.86
2017-04-19T00:56:38.687Z,1026.87
2017-04-19T00:57:38.660Z,1026.9
2017-04-19T00:58:38.633Z,1026.83
2017-04-19T00:59:38.654Z,1026.9
2017-04-19T01:00:38.579Z,1026.86
2017-04-19T01:01:38.551Z,1026.86
2017-04-19T01:02:38.525Z,1026.86
2017-04-19T01:03:38.498Z,1026.87
2017-04-19T01:04:38.469Z,1026.95
2017-04-19T01:05:38.445Z,1026.92
2017-04-19T01:06:38.414Z,1026.94
2017-04-19T01:07:38.389Z,1026.94
2017-04-19T01:08:38.361Z,1026.98
2017-04-19T01:09:38.334Z,1027
2017-04-19T01:10:38.307Z,1027.01
2017-04-19T01:11:38.280Z,1027.03
2017-04-19T01:12:38.254Z,1027.02
2017-04-19T01:13:38.228Z,1027.03
2017-04-19T01:14:38.196Z,1027.02
2017-04-19T01:15:38.172Z,1027.01
2017-04-19T01:16:38.148Z,1027.02
2017-04-19T01:17:38.117Z,1027.01
2017-04-19T01:18:38.089Z,1027.05
2017-04-19T01:19:38.060Z,1027.01
2017-04-19T01:20:38.033Z,1027.05
2017-04-19T01:21:38.005Z,1027.06
2017-04-19T01:22:37.979Z,1027.06
2017-04-19T01:23:37.953Z,1027.13
2017-04-19T01:24:37.924Z,1027.07
2017-04-19T01:25:37.898Z,1027.05
2017-04-19T01:26:37.869Z,1027.13
2017-04-19T01:27:37.842Z,1027.14
2017-04-19T01:28:37.814Z,1027.1
2017-04-19T01:29:37.791Z,1027.18
2017-04-19T01:30:37.758Z,1027.19
2017-04-19T01:31:37.731Z,1027.2
2017-04-19T01:32:37.706Z,1027.17
2017-04-19T01:33:37.677Z,1027.18
2017-04-19T01:34:37.649Z,1027.16
2017-04-19T01:35:37.622Z,1027.21
2017-04-19T01:36:37.599Z,1027.19
2017-04-19T01:37:37.568Z,1027.17
2017-04-19T01:38:37.545Z,1027.13
2017-04-19T01:39:37.517Z,1027.17
2017-04-19T01:40:37.487Z,1027.16
2017-04-19T01:41:37.457Z,1027.16
2017-04-19T01:42:37.432Z,1027.19
2017-04-19T01:43:37.405Z,1027.16
2017-04-19T01:44:37.378Z,1027.19
2017-04-19T01:45:37.347Z,1027.15
2017-04-19T01:46:37.321Z,1027.17
2017-04-19T01:47:37.294Z,1027.2
2017-04-19T01:48:37.267Z,1027.19
2017-04-19T01:49:37.239Z,1027.16
2017-04-19T01:50:37.212Z,1027.18
2017-04-19T01:51:37.189Z,1027.17
2017-04-19T01:52:37.159Z,1027.14
2017-04-19T01:53:37.128Z,1027.18
2017-04-19T01:54:37.102Z,1027.12
2017-04-19T01:55:37.073Z,1027.17
2017-04-19T01:56:37.048Z,1027.23
2017-04-19T01:57:37.020Z,1027.18
2017-04-19T01:58:36.997Z,1027.2
2017-04-19T01:59:36.970Z,1027.2
2017-04-19T02:00:36.934Z,1027.2
2017-04-19T02:01:36.911Z,1027.24
2017-04-19T02:02:36.882Z,1027.19
2017-04-19T02:03:36.854Z,1027.24
2017-04-19T02:04:36.827Z,1027.24
2017-04-19T02:05:36.806Z,1027.27
2017-04-19T02:06:36.772Z,1027.23
2017-04-19T02:07:36.745Z,1027.25
2017-04-19T02:08:36.716Z,1027.24
2017-04-19T02:09:36.691Z,1027.24
2017-04-19T02:10:36.661Z,1027.23
2017-04-19T02:11:36.633Z,1027.29
2017-04-19T02:12:36.610Z,1027.24
2017-04-19T02:13:36.580Z,1027.24
2017-04-19T02:14:36.551Z,1027.26
2017-04-19T02:15:36.524Z,1027.24
2017-04-19T02:16:36.511Z,1027.27
2017-04-19T02:17:36.469Z,1027.27
2017-04-19T02:18:36.445Z,1027.3
2017-04-19T02:19:36.464Z,1027.24
2017-04-19T02:20:36.388Z,1027.27
2017-04-19T02:21:36.358Z,1027.25
2017-04-19T02:22:36.334Z,1027.27
2017-04-19T02:23:36.307Z,1027.31
2017-04-19T02:24:36.276Z,1027.34
2017-04-19T02:25:36.252Z,1027.36
2017-04-19T02:26:36.220Z,1027.34
2017-04-19T02:27:36.192Z,1027.43
2017-04-19T02:28:36.172Z,1027.38
2017-04-19T02:29:36.141Z,1027.38
2017-04-19T02:30:36.110Z,1027.36
2017-04-19T02:31:36.084Z,1027.37
2017-04-19T02:32:36.056Z,1027.37
2017-04-19T02:33:36.024Z,1027.37
2017-04-19T02:34:35.998Z,1027.43
2017-04-19T02:35:35.975Z,1027.38
2017-04-19T02:36:35.944Z,1027.39
2017-04-19T02:37:35.915Z,1027.4
2017-04-19T02:38:35.888Z,1027.39
2017-04-19T02:39:35.859Z,1027.37
2017-04-19T02:40:35.837Z,1027.36
2017-04-19T02:41:35.811Z,1027.4
2017-04-19T02:42:35.775Z,1027.42
2017-04-19T02:43:35.748Z,1027.39
2017-04-19T02:44:35.726Z,1027.42
2017-04-19T02:45:35.692Z,1027.45
2017-04-19T02:46:35.666Z,1027.41
2017-04-19T02:47:35.637Z,1027.41
2017-04-19T02:48:35.610Z,1027.41
2017-04-19T02:49:35.584Z,1027.42
2017-04-19T02:50:35.553Z,1027.42
2017-04-19T02:51:35.524Z,1027.46
2017-04-19T02:52:35.500Z,1027.46
2017-04-19T02:53:35.474Z,1027.4
2017-04-19T02:54:35.440Z,1027.45
2017-04-19T02:55:35.414Z,1027.43
2017-04-19T02:56:35.386Z,1027.44
2017-04-19T02:57:35.362Z,1027.45
2017-04-19T02:58:36.088Z,1027.42
2017-04-19T02:59:35.307Z,1027.44
2017-04-19T03:00:35.275Z,1027.42
2017-04-19T03:01:35.246Z,1027.47
2017-04-19T03:02:35.218Z,1027.44
2017-04-19T03:03:35.189Z,1027.49
2017-04-19T03:04:35.162Z,1027.47
2017-04-19T03:05:35.133Z,1027.48
2017-04-19T03:06:35.104Z,1027.5
2017-04-19T03:07:35.078Z,1027.48
2017-04-19T03:08:35.053Z,1027.49
2017-04-19T03:09:35.022Z,1027.45
2017-04-19T03:10:34.998Z,1027.48
2017-04-19T03:11:34.968Z,1027.46
2017-04-19T03:12:34.938Z,1027.48
2017-04-19T03:13:34.909Z,1027.51
2017-04-19T03:14:34.888Z,1027.49
2017-04-19T03:15:34.857Z,1027.47
2017-04-19T03:16:34.828Z,1027.49
2017-04-19T03:17:34.798Z,1027.5
2017-04-19T03:18:34.771Z,1027.52
2017-04-19T03:19:34.742Z,1027.47
2017-04-19T03:20:34.713Z,1027.48
2017-04-19T03:21:34.687Z,1027.49
2017-04-19T03:22:34.658Z,1027.48
2017-04-19T03:23:34.633Z,1027.49
2017-04-19T03:24:34.602Z,1027.49
2017-04-19T03:25:34.573Z,1027.55
2017-04-19T03:26:34.547Z,1027.51
2017-04-19T03:27:34.518Z,1027.57
2017-04-19T03:28:34.491Z,1027.58
2017-04-19T03:29:34.468Z,1027.56
2017-04-19T03:30:34.436Z,1027.61
2017-04-19T03:31:34.407Z,1027.62
2017-04-19T03:32:34.379Z,1027.62
2017-04-19T03:33:34.353Z,1027.62
2017-04-19T03:34:34.378Z,1027.64
2017-04-19T03:35:34.296Z,1027.65
2017-04-19T03:36:34.270Z,1027.65
2017-04-19T03:37:34.242Z,1027.67
2017-04-19T03:38:34.217Z,1027.72
2017-04-19T03:39:34.188Z,1027.73
2017-04-19T03:40:34.164Z,1027.71
2017-04-19T03:41:34.131Z,1027.71
2017-04-19T03:42:34.103Z,1027.69
2017-04-19T03:43:34.077Z,1027.73
2017-04-19T03:44:34.048Z,1027.73
2017-04-19T03:45:34.021Z,1027.69
2017-04-19T03:46:33.997Z,1027.69
2017-04-19T03:47:34.416Z,1027.72
2017-04-19T03:48:33.940Z,1027.76
2017-04-19T03:49:33.908Z,1027.78
2017-04-19T03:50:33.882Z,1027.78
2017-04-19T03:51:33.861Z,1027.79
2017-04-19T03:52:33.828Z,1027.79
2017-04-19T03:53:33.799Z,1027.76
2017-04-19T03:54:33.770Z,1027.8
2017-04-19T03:55:33.745Z,1027.81
2017-04-19T03:56:33.714Z,1027.82
2017-04-19T03:57:33.689Z,1027.89
2017-04-19T03:58:33.659Z,1027.84
2017-04-19T03:59:33.632Z,1027.84
2017-04-19T04:00:33.603Z,1027.92
2017-04-19T04:01:33.575Z,1027.87
2017-04-19T04:02:33.549Z,1027.89
2017-04-19T04:03:33.523Z,1027.89
2017-04-19T04:04:33.493Z,1027.88
2017-04-19T04:05:33.468Z,1027.9
2017-04-19T04:06:33.441Z,1027.92
2017-04-19T04:07:33.412Z,1027.89
2017-04-19T04:08:33.386Z,1027.94
2017-04-19T04:09:33.357Z,1027.92
2017-04-19T04:10:33.330Z,1027.94
2017-04-19T04:11:33.303Z,1027.96
2017-04-19T04:12:33.326Z,1027.93
2017-04-19T04:13:33.246Z,1027.91
2017-04-19T04:14:33.222Z,1027.92
2017-04-19T04:15:33.210Z,1027.96
2017-04-19T04:16:33.164Z,1027.97
2017-04-19T04:17:33.138Z,1027.93
2017-04-19T04:18:33.407Z,1027.95
2017-04-19T04:19:33.083Z,1027.96
2017-04-19T04:20:33.056Z,1027.92
2017-04-19T04:21:33.031Z,1027.97
2017-04-19T04:22:32.997Z,1027.92
2017-04-19T04:23:32.970Z,1027.96
2017-04-19T04:24:32.941Z,1027.91
2017-04-19T04:25:32.914Z,1027.99
2017-04-19T04:26:32.886Z,1027.93
2017-04-19T04:27:32.860Z,1027.97
2017-04-19T04:28:32.829Z,1027.95
2017-04-19T04:29:32.803Z,1027.96
2017-04-19T04:30:33.876Z,1027.98
2017-04-19T04:31:32.750Z,1027.97
2017-04-19T04:32:32.720Z,1027.94
2017-04-19T04:33:32.690Z,1028.02
2017-04-19T04:34:32.663Z,1028
2017-04-19T04:35:32.636Z,1027.97
2017-04-19T04:36:32.608Z,1027.97
2017-04-19T04:37:32.578Z,1028.02
2017-04-19T04:38:32.554Z,1028.03
2017-04-19T04:39:32.524Z,1028.02
2017-04-19T04:40:32.494Z,1028.01
2017-04-19T04:41:32.466Z,1028.03
2017-04-19T04:42:32.436Z,1028
2017-04-19T04:43:32.409Z,1028.01
2017-04-19T04:44:32.381Z,1028.03
2017-04-19T04:45:32.354Z,1028.02
2017-04-19T04:46:32.326Z,1027.99
2017-04-19T04:47:32.304Z,1028.02
2017-04-19T04:48:32.269Z,1028.04
2017-04-19T04:49:32.243Z,1028.06
2017-04-19T04:50:32.262Z,1028.06
2017-04-19T04:51:32.186Z,1028.11
2017-04-19T04:52:32.159Z,1028.12
2017-04-19T04:53:32.132Z,1028.07
2017-04-19T04:54:32.105Z,1028.13
2017-04-19T04:55:32.074Z,1028.11
2017-04-19T04:56:32.047Z,1028.18
2017-04-19T04:57:32.021Z,1028.23
2017-04-19T04:58:31.998Z,1028.23
2017-04-19T04:59:31.966Z,1028.25
2017-04-19T05:00:31.942Z,1028.21
2017-04-19T05:01:31.914Z,1028.24
2017-04-19T05:02:31.887Z,1028.24
2017-04-19T05:03:31.859Z,1028.25
2017-04-19T05:04:31.837Z,1028.25
2017-04-19T05:05:31.856Z,1028.28
2017-04-19T05:06:31.780Z,1028.27
2017-04-19T05:07:31.805Z,1028.24
2017-04-19T05:08:31.728Z,1028.28
2017-04-19T05:09:31.702Z,1028.26
2017-04-19T05:10:31.675Z,1028.22
2017-04-19T05:11:31.650Z,1028.29
2017-04-19T05:12:31.625Z,1028.26
2017-04-19T05:13:31.596Z,1028.26
2017-04-19T05:14:31.573Z,1028.26
2017-04-19T05:15:31.597Z,1028.26
2017-04-19T05:16:31.522Z,1028.28
2017-04-19T05:17:31.495Z,1028.28
2017-04-19T05:18:31.472Z,1028.24
2017-04-19T05:19:31.446Z,1028.3
2017-04-19T05:20:31.421Z,1028.3
2017-04-19T05:21:31.395Z,1028.31
2017-04-19T05:22:31.370Z,1028.29
2017-04-19T05:23:31.350Z,1028.31
2017-04-19T05:24:31.322Z,1028.32
2017-04-19T05:25:31.303Z,1028.37
2017-04-19T05:26:31.272Z,1028.38
2017-04-19T05:27:31.247Z,1028.38
2017-04-19T05:28:31.273Z,1028.37
2017-04-19T05:29:31.205Z,1028.44
2017-04-19T05:30:31.177Z,1028.44
2017-04-19T05:31:31.152Z,1028.45
2017-04-19T05:32:31.133Z,1028.45
2017-04-19T05:33:31.153Z,1028.47
2017-04-19T05:34:31.078Z,1028.48
2017-04-19T05:35:31.057Z,1028.47
2017-04-19T05:36:31.032Z,1028.52
2017-04-19T05:37:31.009Z,1028.51
2017-04-19T05:38:30.985Z,1028.49
2017-04-19T05:39:30.968Z,1028.53
2017-04-19T05:40:30.939Z,1028.54
2017-04-19T05:41:30.915Z,1028.58
2017-04-19T05:42:30.897Z,1028.6
2017-04-19T05:43:30.869Z,1028.55
2017-04-19T05:44:30.846Z,1028.54
2017-04-19T05:45:30.821Z,1028.58
2017-04-19T05:46:30.801Z,1028.58
2017-04-19T05:47:30.778Z,1028.58
2017-04-19T05:48:30.757Z,1028.57
2017-04-19T05:49:30.732Z,1028.57
2017-04-19T05:50:30.708Z,1028.57
2017-04-19T05:51:30.686Z,1028.64
2017-04-19T05:52:30.665Z,1028.62
2017-04-19T05:53:30.641Z,1028.67
2017-04-19T05:54:30.618Z,1028.71
2017-04-19T05:55:30.599Z,1028.71
2017-04-19T05:56:30.578Z,1028.72
2017-04-19T05:57:30.552Z,1028.76
2017-04-19T05:58:30.528Z,1028.76
2017-04-19T05:59:30.508Z,1028.76
2017-04-19T06:00:30.485Z,1028.78
2017-04-19T06:01:30.513Z,1028.77
2017-04-19T06:02:30.442Z,1028.84
2017-04-19T06:03:30.418Z,1028.91
2017-04-19T06:04:30.398Z,1028.85
2017-04-19T06:05:30.377Z,1028.88
2017-04-19T06:06:30.355Z,1028.86
2017-04-19T06:07:30.332Z,1028.93
2017-04-19T06:08:30.307Z,1028.95
2017-04-19T06:09:30.287Z,1028.96
2017-04-19T06:10:30.271Z,1028.98
2017-04-19T06:11:30.246Z,1028.99
2017-04-19T06:12:30.224Z,1029.01
2017-04-19T06:13:30.207Z,1029.03
2017-04-19T06:14:30.181Z,1029
2017-04-19T06:15:30.158Z,1029.06
2017-04-19T06:16:30.139Z,1029.09
2017-04-19T06:17:30.118Z,1029.04
2017-04-19T06:18:30.097Z,1029.09
2017-04-19T06:19:30.073Z,1029.15
2017-04-19T06:20:30.052Z,1029.06
2017-04-19T06:21:30.031Z,1029.11
2017-04-19T06:22:30.010Z,1029.1
2017-04-19T06:23:29.987Z,1029.12
2017-04-19T06:24:29.969Z,1029.1
2017-04-19T06:25:30.646Z,1029.17
2017-04-19T06:26:29.927Z,1029.17
2017-04-19T06:27:29.903Z,1029.16
2017-04-19T06:28:29.881Z,1029.2
2017-04-19T06:29:29.862Z,1029.18
2017-04-19T06:30:29.842Z,1029.28
2017-04-19T06:31:29.819Z,1029.21
2017-04-19T06:32:29.802Z,1029.19
2017-04-19T06:33:29.778Z,1029.25
2017-04-19T06:34:29.754Z,1029.23
2017-04-19T06:35:29.736Z,1029.23
2017-04-19T06:36:29.715Z,1029.27
2017-04-19T06:37:29.696Z,1029.29
2017-04-19T06:38:29.672Z,1029.34
2017-04-19T06:39:29.650Z,1029.39
2017-04-19T06:40:29.630Z,1029.32
2017-04-19T06:41:29.609Z,1029.35
2017-04-19T06:42:29.589Z,1029.41
2017-04-19T06:43:29.570Z,1029.39
2017-04-19T06:44:29.548Z,1029.42
2017-04-19T06:45:29.528Z,1029.4
2017-04-19T06:46:29.505Z,1029.41
2017-04-19T06:47:29.488Z,1029.42
2017-04-19T06:48:29.470Z,1029.43
2017-04-19T06:49:29.447Z,1029.55
2017-04-19T06:50:29.428Z,1029.51
2017-04-19T06:51:29.458Z,1029.46
2017-04-19T06:52:29.385Z,1029.48
2017-04-19T06:53:29.364Z,1029.49
2017-04-19T06:54:29.349Z,1029.5
2017-04-19T06:55:29.325Z,1029.5
2017-04-19T06:56:29.304Z,1029.46
2017-04-19T06:57:29.285Z,1029.51
2017-04-19T06:58:29.266Z,1029.48
2017-04-19T06:59:29.244Z,1029.45
2017-04-19T07:00:29.224Z,1029.48
2017-04-19T07:01:29.203Z,1029.48
2017-04-19T07:02:29.235Z,1029.46
2017-04-19T07:03:29.164Z,1029.49
2017-04-19T07:04:29.143Z,1029.54
2017-04-19T07:05:29.124Z,1029.51
2017-04-19T07:06:29.106Z,1029.57
2017-04-19T07:07:29.086Z,1029.52
2017-04-19T07:08:29.067Z,1029.55
2017-04-19T07:09:29.047Z,1029.56
2017-04-19T07:10:29.024Z,1029.57
2017-04-19T07:11:29.008Z,1029.62
2017-04-19T07:12:28.988Z,1029.55
2017-04-19T07:13:28.970Z,1029.55
2017-04-19T07:14:28.947Z,1029.6
2017-04-19T07:15:28.932Z,1029.71
2017-04-19T07:16:28.915Z,1029.63
2017-04-19T07:17:28.891Z,1029.77
2017-04-19T07:18:28.873Z,1029.61
2017-04-19T07:19:28.857Z,1029.65
2017-04-19T07:20:28.838Z,1029.64
2017-04-19T07:21:28.814Z,1029.61
2017-04-19T07:22:28.799Z,1029.58
2017-04-19T07:23:28.780Z,1029.61
2017-04-19T07:24:28.759Z,1029.64
2017-04-19T07:25:28.740Z,1029.6
2017-04-19T07:26:28.722Z,1029.63
2017-04-19T07:27:28.703Z,1029.59
2017-04-19T07:28:28.682Z,1029.57
2017-04-19T07:29:28.664Z,1029.7
2017-04-19T07:30:28.694Z,1029.64
2017-04-19T07:31:28.627Z,1029.69
2017-04-19T07:32:28.609Z,1029.69
2017-04-19T07:33:28.589Z,1029.65
2017-04-19T07:34:28.568Z,1029.67
2017-04-19T07:35:28.546Z,1029.69
2017-04-19T07:36:28.529Z,1029.66
2017-04-19T07:37:28.520Z,1029.64
2017-04-19T07:38:30.288Z,1029.78
2017-04-19T07:39:28.470Z,1029.77
2017-04-19T07:40:28.799Z,1029.69
2017-04-19T07:41:28.430Z,1029.75
2017-04-19T07:42:28.410Z,1029.77
2017-04-19T07:43:28.389Z,1029.75
2017-04-19T07:44:28.371Z,1029.72
2017-04-19T07:45:28.351Z,1029.69
2017-04-19T07:46:28.335Z,1029.85
2017-04-19T07:47:28.312Z,1029.76
2017-04-19T07:48:28.293Z,1029.71
2017-04-19T07:49:28.325Z,1029.77
2017-04-19T07:50:28.254Z,1029.76
2017-04-19T07:51:28.236Z,1029.72
2017-04-19T07:52:28.218Z,1029.74
2017-04-19T07:53:28.199Z,1029.69
2017-04-19T07:54:28.176Z,1029.75
2017-04-19T07:55:28.158Z,1029.66
2017-04-19T07:56:28.139Z,1029.64
2017-04-19T07:57:28.120Z,1029.72
2017-04-19T07:58:28.103Z,1029.72
2017-04-19T07:59:28.085Z,1029.71
2017-04-19T08:00:28.065Z,1029.78
2017-04-19T08:01:28.047Z,1029.76
2017-04-19T08:02:28.029Z,1029.72
2017-04-19T08:03:28.009Z,1029.83
2017-04-19T08:04:27.994Z,1029.78
2017-04-19T08:05:27.973Z,1029.86
2017-04-19T08:06:27.955Z,1029.87
2017-04-19T08:07:27.938Z,1029.8
2017-04-19T08:08:27.918Z,1029.82
2017-04-19T08:09:27.900Z,1029.84
2017-04-19T08:10:27.882Z,1029.79
2017-04-19T08:11:27.864Z,1029.83
2017-04-19T08:12:27.844Z,1029.79
2017-04-19T08:13:27.826Z,1029.87
2017-04-19T08:14:29.008Z,1029.79
2017-04-19T08:15:27.791Z,1029.87
2017-04-19T08:16:27.773Z,1029.75
2017-04-19T08:17:27.753Z,1029.78
2017-04-19T08:18:27.741Z,1029.79
2017-04-19T08:19:27.722Z,1029.87
2017-04-19T08:20:27.737Z,1029.81
2017-04-19T08:21:27.686Z,1029.75
2017-04-19T08:22:27.670Z,1029.78
2017-04-19T08:23:27.651Z,1029.86
2017-04-19T08:24:27.633Z,1029.84
2017-04-19T08:25:27.618Z,1029.89
2017-04-19T08:26:27.597Z,1029.86
2017-04-19T08:27:27.578Z,1029.87
2017-04-19T08:28:27.561Z,1029.92
2017-04-19T08:29:27.543Z,1029.94
2017-04-19T08:30:27.526Z,1029.77
2017-04-19T08:31:27.516Z,1029.89
2017-04-19T08:32:27.496Z,1029.85
2017-04-19T08:33:27.480Z,1029.82
2017-04-19T08:34:27.456Z,1029.87
2017-04-19T08:35:27.439Z,1029.77
2017-04-19T08:36:27.422Z,1029.89
2017-04-19T08:37:27.410Z,1029.94
2017-04-19T08:38:27.388Z,1029.86
2017-04-19T08:39:27.717Z,1029.85
2017-04-19T08:40:27.347Z,1029.91
2017-04-19T08:41:27.331Z,1030.03
2017-04-19T08:42:27.305Z,1029.95
2017-04-19T08:43:27.290Z,1029.98
2017-04-19T08:44:27.269Z,1029.92
2017-04-19T08:45:27.255Z,1029.89
2017-04-19T08:46:27.233Z,1029.88
2017-04-19T08:47:27.211Z,1029.92
2017-04-19T08:48:27.193Z,1029.95
2017-04-19T08:49:27.175Z,1030.03
2017-04-19T08:50:27.155Z,1029.95
2017-04-19T08:51:27.136Z,1030.07
2017-04-19T08:52:27.117Z,1029.95
2017-04-19T08:53:27.102Z,1029.99
2017-04-19T08:54:27.079Z,1029.93
2017-04-19T08:55:27.067Z,1029.98
2017-04-19T08:56:27.048Z,1030.02
2017-04-19T08:57:27.036Z,1030
2017-04-19T08:58:27.018Z,1030.01
2017-04-19T08:59:26.998Z,1029.99
2017-04-19T09:00:26.980Z,1030.02
2017-04-19T09:01:26.961Z,1030.07
2017-04-19T09:02:26.945Z,1030.13
2017-04-19T09:03:26.925Z,1030.18
2017-04-19T09:04:26.908Z,1030.07
2017-04-19T09:05:26.891Z,1030.07
2017-04-19T09:06:26.874Z,1030.12
2017-04-19T09:07:26.870Z,1030.12
2017-04-19T09:08:26.838Z,1030.06
2017-04-19T09:09:26.820Z,1030.15
2017-04-19T09:10:26.801Z,1030.13
2017-04-19T09:11:26.781Z,1030.14
2017-04-19T09:12:26.768Z,1030.3
2017-04-19T09:13:26.749Z,1030.17
2017-04-19T09:14:28.082Z,1030.07
2017-04-19T09:15:26.714Z,1030.13
2017-04-19T09:16:26.700Z,1030.2
2017-04-19T09:17:26.679Z,1030.26
2017-04-19T09:18:26.664Z,1030.17
2017-04-19T09:19:26.646Z,1030.2
2017-04-19T09:20:26.630Z,1030.16
2017-04-19T09:21:26.615Z,1030.11
2017-04-19T09:22:26.599Z,1030.16
2017-04-19T09:23:26.576Z,1030.14
2017-04-19T09:24:26.562Z,1030.11
2017-04-19T09:25:26.540Z,1030.19
2017-04-19T09:26:26.523Z,1030.11
2017-04-19T09:27:26.505Z,1030.12
2017-04-19T09:28:26.486Z,1030.15
2017-04-19T09:29:26.468Z,1030.24
2017-04-19T09:30:27.049Z,1030.26
2017-04-19T09:31:26.429Z,1030.15
2017-04-19T09:32:26.414Z,1030.26
2017-04-19T09:33:26.390Z,1030.28
2017-04-19T09:34:26.369Z,1030.24
2017-04-19T09:35:26.346Z,1030.15
2017-04-19T09:36:26.326Z,1030.2
2017-04-19T09:37:26.302Z,1030.23
2017-04-19T09:38:26.285Z,1030.23
2017-04-19T09:39:26.266Z,1030.2
2017-04-19T09:40:26.241Z,1030.18
2017-04-19T09:41:26.221Z,1030.25
2017-04-19T09:42:26.199Z,1030.19
2017-04-19T09:43:26.177Z,1030.25
2017-04-19T09:44:26.154Z,1030.23
2017-04-19T09:45:26.133Z,1030.18
2017-04-19T09:46:26.112Z,1030.2
2017-04-19T09:47:26.086Z,1030.19
2017-04-19T09:48:26.117Z,1030.16
2017-04-19T09:49:26.049Z,1030.17
2017-04-19T09:50:26.027Z,1030.14
2017-04-19T09:51:26.000Z,1030.29
2017-04-19T09:52:25.982Z,1030.24
2017-04-19T09:53:25.982Z,1030.26
2017-04-19T09:54:25.933Z,1030.25
2017-04-19T09:55:25.910Z,1030.19
2017-04-19T09:56:25.887Z,1030.27
2017-04-19T09:57:25.864Z,1030.26
2017-04-19T09:58:25.841Z,1030.26
2017-04-19T09:59:25.825Z,1030.29
2017-04-19T10:00:25.798Z,1030.26
2017-04-19T10:01:25.777Z,1030.32
2017-04-19T10:02:25.754Z,1030.27
2017-04-19T10:03:25.737Z,1030.2
2017-04-19T10:04:25.711Z,1030.26
2017-04-19T10:05:25.687Z,1030.19
2017-04-19T10:06:25.668Z,1030.2
2017-04-19T10:07:25.649Z,1030.23
2017-04-19T10:08:25.628Z,1030.25
2017-04-19T10:09:25.604Z,1030.19
2017-04-19T10:10:25.638Z,1030.2
2017-04-19T10:11:25.568Z,1030.22
2017-04-19T10:12:25.550Z,1030.2
2017-04-19T10:13:25.529Z,1030.24
2017-04-19T10:14:25.513Z,1030.16
2017-04-19T10:15:25.493Z,1030.14
2017-04-19T10:16:25.475Z,1030.13
2017-04-19T10:17:25.457Z,1030.15
2017-04-19T10:18:25.439Z,1030.18
2017-04-19T10:19:25.422Z,1030.23
2017-04-19T10:20:25.402Z,1030.15
2017-04-19T10:21:25.388Z,1030.22
2017-04-19T10:22:25.370Z,1030.12
2017-04-19T10:23:25.358Z,1030.12
2017-04-19T10:24:25.343Z,1030.13
2017-04-19T10:25:25.323Z,1030.19
2017-04-19T10:26:25.306Z,1030.16
2017-04-19T10:27:25.287Z,1030.08
2017-04-19T10:28:25.272Z,1030.1
2017-04-19T10:29:25.259Z,1030.07
2017-04-19T10:30:25.287Z,1030.07
2017-04-19T10:31:25.225Z,1030.04
2017-04-19T10:32:25.208Z,1030.01
2017-04-19T10:33:25.188Z,1030.03
2017-04-19T10:34:25.172Z,1030.05
2017-04-19T10:35:25.151Z,1030.01
2017-04-19T10:36:25.136Z,1030.17
2017-04-19T10:37:25.117Z,1030.1
2017-04-19T10:38:25.098Z,1030.08
2017-04-19T10:39:25.076Z,1030.06
2017-04-19T10:40:25.058Z,1030.03
2017-04-19T10:41:25.038Z,1030
2017-04-19T10:42:25.016Z,1030.02
2017-04-19T10:43:25.000Z,1030.08
2017-04-19T10:44:24.978Z,1030.05
2017-04-19T10:45:24.960Z,1030.12
2017-04-19T10:46:24.940Z,1030.17
2017-04-19T10:47:24.915Z,1030.1
2017-04-19T10:48:24.898Z,1030.07
2017-04-19T10:49:24.873Z,1030.09
2017-04-19T10:50:24.853Z,1030.05
2017-04-19T10:51:24.834Z,1030.09
2017-04-19T10:52:24.811Z,1030.13
2017-04-19T10:53:24.786Z,1030.09
2017-04-19T10:54:24.769Z,1030.06
2017-04-19T10:55:24.745Z,1030.01
2017-04-19T10:56:24.724Z,1030
2017-04-19T10:57:24.703Z,1029.98
2017-04-19T10:58:24.678Z,1030.09
2017-04-19T10:59:24.660Z,1030.01
2017-04-19T11:00:24.635Z,1029.9
2017-04-19T11:01:24.613Z,1029.92
2017-04-19T11:02:24.593Z,1029.95
2017-04-19T11:03:24.572Z,1029.95
2017-04-19T11:04:24.547Z,1029.94
2017-04-19T11:05:24.525Z,1029.98
2017-04-19T11:06:24.505Z,1029.96
2017-04-19T11:07:24.489Z,1029.99
2017-04-19T11:08:24.458Z,1030.04
2017-04-19T11:09:24.436Z,1029.97
2017-04-19T11:10:24.415Z,1030.04
2017-04-19T11:11:24.393Z,1030.01
2017-04-19T11:12:24.421Z,1030.09
2017-04-19T11:13:24.351Z,1030.06
2017-04-19T11:14:24.325Z,1030.04
2017-04-19T11:15:24.303Z,1030.03
2017-04-19T11:16:24.284Z,1030.09
2017-04-19T11:17:24.280Z,1030.05
2017-04-19T11:18:24.238Z,1030.01
2017-04-19T11:19:24.213Z,1030
2017-04-19T11:20:24.190Z,1030
2017-04-19T11:21:24.173Z,1030.01
2017-04-19T11:22:24.147Z,1030.05
2017-04-19T11:23:24.126Z,1030.01
2017-04-19T11:24:24.106Z,1030.02
2017-04-19T11:25:24.079Z,1030.05
2017-04-19T11:26:24.056Z,1030
2017-04-19T11:27:24.036Z,1029.94
2017-04-19T11:28:24.013Z,1029.98
2017-04-19T11:29:23.992Z,1030.05
2017-04-19T11:30:23.968Z,1030.03
2017-04-19T11:31:23.947Z,1030.09
2017-04-19T11:32:23.924Z,1030.05
2017-04-19T11:33:23.909Z,1030.06
2017-04-19T11:34:23.876Z,1030.02
2017-04-19T11:35:23.855Z,1030.02
2017-04-19T11:36:23.836Z,1029.97
2017-04-19T11:37:23.861Z,1029.99
2017-04-19T11:38:23.790Z,1030.01
2017-04-19T11:39:23.769Z,1030.05
2017-04-19T11:40:23.747Z,1029.96
2017-04-19T11:41:23.728Z,1030
2017-04-19T11:42:23.700Z,1030.07
2017-04-19T11:43:23.684Z,1030.07
2017-04-19T11:44:23.658Z,1030.04
2017-04-19T11:45:23.633Z,1029.96
2017-04-19T11:46:23.609Z,1030.08
2017-04-19T11:47:23.591Z,1030.03
2017-04-19T11:48:23.565Z,1030.05
2017-04-19T11:49:24.542Z,1030.07
2017-04-19T11:50:23.520Z,1030.03
2017-04-19T11:51:23.499Z,1030.05
2017-04-19T11:52:23.472Z,1030.04
2017-04-19T11:53:23.450Z,1030.01
2017-04-19T11:54:23.428Z,1030.06
2017-04-19T11:55:23.406Z,1030.06
2017-04-19T11:56:23.380Z,1029.98
2017-04-19T11:57:23.363Z,1030.04
2017-04-19T11:58:23.337Z,1029.99
2017-04-19T11:59:23.312Z,1029.97
2017-04-19T12:00:23.291Z,1030.03
2017-04-19T12:01:23.267Z,1030.01
2017-04-19T12:02:23.245Z,1029.98
2017-04-19T12:03:23.421Z,1029.95
2017-04-19T12:04:23.199Z,1030.01
2017-04-19T12:05:23.176Z,1029.9
2017-04-19T12:06:23.157Z,1029.91
2017-04-19T12:07:23.130Z,1029.9
2017-04-19T12:08:23.107Z,1029.91
2017-04-19T12:09:23.094Z,1029.89